createdAt,value
2019-01-18T08:39:28.022Z,656
2019-01-18T08:39:43.997Z,629
2019-01-18T08:39:59.866Z,612
2019-01-18T08:40:15.791Z,609
2019-01-18T08:40:31.772Z,611
2019-01-18T08:40:47.623Z,610
2019-01-18T08:41:03.483Z,645
2019-01-18T08:41:19.343Z,740
2019-01-18T08:41:35.216Z,716
2019-01-18T08:41:51.065Z,666
2019-01-18T08:42:06.973Z,651
2019-01-18T08:42:23.009Z,640
2019-01-18T08:42:39.067Z,645
2019-01-18T08:42:54.940Z,642
2019-01-18T08:43:10.797Z,635
2019-01-18T08:43:26.675Z,637
2019-01-18T08:43:42.527Z,644
2019-01-18T08:43:58.399Z,640
2019-01-18T08:44:14.289Z,638
2019-01-18T08:44:30.173Z,642
2019-01-18T08:44:46.068Z,646
2019-01-18T08:45:01.937Z,652
2019-01-18T08:45:18.317Z,658
2019-01-18T08:45:34.941Z,700
2019-01-18T08:45:50.853Z,722
2019-01-18T08:46:06.723Z,741
2019-01-18T08:46:22.580Z,746
2019-01-18T08:46:38.449Z,757
2019-01-18T08:46:54.303Z,771
2019-01-18T08:47:10.164Z,775
2019-01-18T08:47:26.062Z,783
2019-01-18T08:47:41.960Z,787
2019-01-18T08:47:57.808Z,797
2019-01-18T08:48:13.709Z,820
2019-01-18T08:48:29.588Z,841
2019-01-18T08:48:45.693Z,840
2019-01-18T08:49:01.524Z,851
2019-01-18T08:49:17.363Z,859
2019-01-18T08:49:33.229Z,867
2019-01-18T08:49:49.223Z,897
2019-01-18T08:50:05.093Z,890
2019-01-18T08:50:20.975Z,881
2019-01-18T08:50:36.870Z,870
2019-01-18T08:50:52.703Z,833
2019-01-18T08:51:08.608Z,817
2019-01-18T08:51:24.553Z,799
2019-01-18T08:51:40.701Z,698
2019-01-18T08:51:56.608Z,696
2019-01-18T08:52:12.445Z,686
2019-01-18T08:52:28.289Z,694
2019-01-18T08:52:44.146Z,692
2019-01-18T08:53:00.053Z,690
2019-01-18T08:53:15.966Z,684
2019-01-18T08:53:31.887Z,686
2019-01-18T08:53:47.848Z,685
2019-01-18T08:54:03.738Z,686
2019-01-18T08:54:19.574Z,685
2019-01-18T08:54:35.446Z,683
2019-01-18T08:54:51.372Z,683
2019-01-18T08:55:07.227Z,685
2019-01-18T08:55:23.115Z,688
2019-01-18T08:55:39.014Z,691
2019-01-18T08:55:54.913Z,691
2019-01-18T08:56:10.802Z,687
2019-01-18T08:56:26.654Z,683
2019-01-18T08:56:42.499Z,683
2019-01-18T08:56:58.335Z,682
2019-01-18T08:57:14.174Z,675
2019-01-18T08:57:30.169Z,672
2019-01-18T08:57:46.518Z,670
2019-01-18T14:12:55.892Z,1411
2019-01-18T14:13:11.794Z,1334
2019-01-18T14:13:27.690Z,1087
2019-01-18T14:13:43.560Z,1028
2019-01-18T14:13:59.468Z,1015
2019-01-18T14:14:15.589Z,1018
2019-01-18T14:14:31.460Z,1200
2019-01-18T14:14:47.333Z,1238
2019-01-18T14:15:03.195Z,1266
2019-01-18T14:15:19.089Z,1264
2019-01-18T14:15:35.061Z,1137
2019-01-18T14:15:57.465Z,1139
2019-01-18T14:16:13.365Z,1126
2019-01-18T14:16:29.238Z,1110
2019-01-18T14:16:45.092Z,1093
2019-01-18T14:17:00.985Z,1091
2019-01-18T14:17:16.942Z,1304
2019-01-18T14:17:32.790Z,1344
2019-01-18T14:17:48.662Z,1362
2019-01-18T14:18:04.513Z,1362
